createdAt,value
2018-09-29T00:01:46.119Z,10.79
2018-09-29T00:04:15.359Z,10.65
2018-09-29T00:06:44.317Z,10.60
2018-09-29T00:09:14.900Z,10.61
2018-09-29T00:11:44.270Z,10.70
2018-09-29T00:14:13.397Z,10.47
2018-09-29T00:16:42.304Z,10.38
2018-09-29T00:19:11.312Z,10.38
2018-09-29T00:21:40.365Z,10.22
2018-09-29T00:24:09.429Z,10.10
2018-09-29T00:26:38.386Z,10.04
2018-09-29T00:29:07.376Z,10.19
2018-09-29T00:31:36.316Z,10.22
2018-09-29T00:34:05.512Z,10.31
2018-09-29T00:36:34.489Z,10.04
2018-09-29T00:39:04.377Z,10.34
2018-09-29T00:41:33.363Z,10.06
2018-09-29T00:44:02.393Z,10.04
2018-09-29T00:46:31.299Z,10.08
2018-09-29T00:49:00.408Z,10.05
2018-09-29T00:51:29.342Z,10.09
2018-09-29T00:53:58.823Z,10.35
2018-09-29T00:56:27.776Z,10.21
2018-09-29T00:58:56.712Z,10.14
2018-09-29T01:01:25.683Z,9.86
2018-09-29T01:03:54.605Z,9.80
2018-09-29T01:06:23.568Z,9.77
2018-09-29T01:08:52.525Z,9.82
2018-09-29T01:11:21.546Z,9.85
2018-09-29T01:13:51.181Z,9.80
2018-09-29T01:16:20.174Z,9.74
2018-09-29T01:18:49.274Z,9.67
2018-09-29T01:21:18.258Z,9.50
2018-09-29T01:23:47.258Z,9.62
2018-09-29T01:26:16.250Z,9.17
2018-09-29T01:28:45.251Z,9.12
2018-09-29T01:31:18.925Z,9.31
2018-09-29T01:37:02.278Z,9.45
2018-09-29T01:39:31.381Z,9.47
2018-09-29T01:42:00.299Z,9.24
2018-09-29T01:44:29.211Z,9.42
2018-09-29T01:46:58.191Z,9.12
2018-09-29T01:49:27.206Z,8.90
2018-09-29T01:51:56.170Z,8.90
2018-09-29T01:54:25.083Z,9.23
2018-09-29T01:56:54.018Z,9.22
2018-09-29T01:59:22.980Z,9.05
2018-09-29T02:01:51.955Z,9.40
2018-09-29T02:04:20.932Z,9.03
2018-09-29T02:06:49.853Z,9.23
2018-09-29T02:09:18.801Z,9.27
2018-09-29T02:11:47.776Z,9.31
2018-09-29T02:14:16.707Z,9.03
2018-09-29T02:16:45.777Z,9.07
2018-09-29T02:19:14.837Z,9.16
2018-09-29T02:21:43.777Z,9.07
2018-09-29T02:24:12.723Z,8.99
2018-09-29T02:26:41.690Z,9.19
2018-09-29T02:29:10.657Z,9.23
2018-09-29T02:31:39.638Z,8.95
2018-09-29T02:34:08.576Z,8.90
2018-09-29T02:36:38.064Z,8.78
2018-09-29T02:39:09.457Z,8.67
2018-09-29T02:41:38.412Z,8.67
2018-09-29T02:44:07.694Z,8.66
2018-09-29T02:46:36.672Z,8.74
2018-09-29T02:49:05.767Z,8.73
2018-09-29T02:51:34.967Z,8.53
2018-09-29T02:54:03.907Z,8.48
2018-09-29T02:56:32.869Z,8.57
2018-09-29T02:59:01.833Z,8.50
2018-09-29T03:01:30.776Z,8.78
2018-09-29T03:03:59.723Z,8.63
2018-09-29T03:06:28.635Z,8.44
2018-09-29T03:08:57.581Z,8.55
2018-09-29T03:11:26.534Z,8.65
2018-09-29T03:13:55.629Z,8.64
2018-09-29T03:16:24.540Z,8.58
2018-09-29T03:18:53.473Z,8.48
2018-09-29T03:21:23.114Z,8.74
2018-09-29T03:23:52.044Z,8.50
2018-09-29T03:26:20.941Z,8.45
2018-09-29T03:28:49.928Z,8.73
2018-09-29T03:31:18.893Z,8.90
2018-09-29T03:33:47.770Z,8.79
2018-09-29T03:36:17.023Z,8.56
2018-09-29T03:38:45.931Z,8.69
2018-09-29T03:41:14.842Z,8.07
2018-09-29T03:43:43.807Z,8.39
2018-09-29T03:46:12.708Z,8.15
2018-09-29T03:48:41.698Z,8.28
2018-09-29T03:51:10.603Z,8.40
2018-09-29T03:53:39.587Z,8.33
2018-09-29T03:56:08.558Z,8.25
2018-09-29T03:58:37.517Z,8.17
2018-09-29T04:01:06.623Z,8.18
2018-09-29T04:03:35.554Z,8.08
2018-09-29T04:06:04.491Z,8.00
2018-09-29T04:08:33.432Z,8.17
2018-09-29T04:11:02.514Z,8.00
2018-09-29T04:13:31.463Z,7.98
2018-09-29T04:16:00.422Z,7.73
2018-09-29T04:18:29.340Z,7.73
2018-09-29T04:20:58.552Z,7.58
2018-09-29T04:23:27.466Z,7.70
2018-09-29T04:25:56.397Z,7.80
2018-09-29T04:28:25.336Z,7.75
2018-09-29T04:30:54.266Z,7.75
2018-09-29T04:33:23.503Z,7.89
2018-09-29T04:35:52.441Z,7.70
2018-09-29T04:38:21.330Z,7.55
2018-09-29T04:40:50.292Z,7.45
2018-09-29T04:43:19.286Z,7.72
2018-09-29T04:45:48.121Z,7.74
2018-09-29T04:48:17.196Z,7.54
2018-09-29T04:50:46.093Z,7.63
2018-09-29T04:53:14.976Z,7.73
2018-09-29T04:55:44.260Z,7.67
2018-09-29T04:58:13.165Z,7.66
2018-09-29T05:00:42.142Z,7.47
2018-09-29T05:03:11.067Z,7.39
2018-09-29T05:05:40.021Z,7.66
2018-09-29T05:08:08.957Z,7.60
2018-09-29T05:10:37.898Z,7.47
2018-09-29T05:13:06.998Z,7.74
2018-09-29T05:15:35.896Z,7.43
2018-09-29T05:18:04.815Z,7.69
2018-09-29T05:20:33.770Z,7.44
2018-09-29T05:23:02.690Z,7.33
2018-09-29T05:25:31.623Z,7.49
2018-09-29T05:28:00.555Z,7.37
2018-09-29T05:30:29.458Z,7.12
2018-09-29T05:32:58.396Z,7.16
2018-09-29T05:35:27.334Z,7.43
2018-09-29T05:37:56.238Z,7.27
2018-09-29T05:40:25.125Z,7.54
2018-09-29T05:42:54.062Z,7.40
2018-09-29T05:45:23.785Z,7.17
2018-09-29T05:47:52.727Z,7.10
2018-09-29T05:50:21.668Z,7.19
2018-09-29T05:52:50.689Z,7.29
2018-09-29T05:55:19.671Z,7.40
2018-09-29T05:57:48.580Z,7.49
2018-09-29T06:00:17.760Z,7.31
2018-09-29T06:02:46.528Z,7.37
2018-09-29T06:05:15.613Z,7.56
2018-09-29T06:07:44.544Z,7.51
2018-09-29T06:10:13.474Z,7.62
2018-09-29T06:12:42.444Z,7.92
2018-09-29T06:15:11.393Z,7.92
2018-09-29T06:17:40.353Z,7.95
2018-09-29T06:20:09.556Z,7.93
2018-09-29T06:22:38.668Z,7.94
2018-09-29T06:25:07.988Z,8.05
2018-09-29T06:27:36.988Z,8.05
2018-09-29T06:30:05.994Z,8.19
2018-09-29T06:32:35.079Z,8.22
2018-09-29T06:35:04.101Z,8.16
2018-09-29T06:37:33.119Z,8.43
2018-09-29T06:40:02.069Z,8.51
2018-09-29T06:42:31.000Z,8.42
2018-09-29T06:45:00.236Z,8.40
2018-09-29T06:47:29.173Z,8.54
2018-09-29T06:49:58.097Z,8.55
2018-09-29T06:52:27.045Z,8.65
2018-09-29T06:54:56.088Z,8.82
2018-09-29T07:10:57.485Z,9.24
2018-09-29T07:13:26.726Z,9.20
2018-09-29T07:15:55.676Z,9.21
2018-09-29T07:18:24.698Z,9.31
2018-09-29T07:20:53.604Z,9.32
2018-09-29T07:23:22.558Z,9.24
2018-09-29T07:25:51.500Z,9.20
2018-09-29T07:28:20.445Z,9.24
2018-09-29T07:30:49.371Z,9.29
2018-09-29T07:33:18.346Z,9.34
2018-09-29T07:35:47.282Z,9.31
2018-09-29T07:38:16.286Z,9.27
2018-09-29T07:40:45.310Z,9.35
2018-09-29T07:43:14.305Z,9.47
2018-09-29T07:45:43.270Z,9.55
2018-09-29T07:48:12.220Z,9.64
2018-09-29T07:50:41.112Z,9.69
2018-09-29T07:53:10.057Z,9.75
2018-09-29T07:55:39.117Z,9.92
2018-09-29T07:58:08.043Z,9.95
2018-09-29T08:00:37.022Z,9.99
2018-09-29T08:03:06.058Z,10.09
2018-09-29T08:05:34.990Z,10.23
2018-09-29T08:08:03.940Z,10.29
2018-09-29T08:10:32.895Z,10.30
2018-09-29T08:13:01.924Z,10.22
2018-09-29T08:15:30.904Z,10.27
2018-09-29T08:17:59.850Z,10.43
2018-09-29T08:20:28.810Z,10.38
2018-09-29T08:22:57.772Z,10.52
2018-09-29T08:25:26.890Z,10.60
2018-09-29T08:27:55.804Z,10.63
2018-09-29T08:30:24.785Z,10.64
2018-09-29T08:32:53.816Z,10.65
2018-09-29T08:35:22.739Z,10.78
2018-09-29T08:37:51.752Z,10.98
2018-09-29T08:40:20.653Z,10.98
2018-09-29T08:42:49.610Z,11.19
2018-09-29T08:45:18.547Z,11.48
2018-09-29T08:47:47.637Z,11.28
2018-09-29T08:50:16.533Z,11.31
2018-09-29T08:52:45.493Z,11.59
2018-09-29T08:55:14.560Z,11.66
2018-09-29T08:57:43.524Z,11.69
2018-09-29T09:00:12.483Z,11.69
2018-09-29T09:02:41.434Z,11.78
2018-09-29T09:05:10.347Z,11.80
2018-09-29T09:07:39.310Z,11.82
2018-09-29T09:10:08.324Z,11.80
2018-09-29T09:12:37.234Z,11.95
2018-09-29T09:15:06.159Z,12.06
2018-09-29T09:17:35.135Z,12.10
2018-09-29T09:20:04.161Z,12.22
2018-09-29T09:22:33.423Z,12.19
2018-09-29T09:25:02.480Z,12.21
2018-09-29T09:27:31.431Z,12.28
2018-09-29T09:30:00.456Z,12.18
2018-09-29T09:32:30.066Z,12.22
2018-09-29T09:34:59.068Z,12.31
2018-09-29T09:37:27.998Z,12.50
2018-09-29T09:39:56.976Z,12.52
2018-09-29T09:42:26.070Z,12.59
2018-09-29T09:44:55.000Z,12.65
2018-09-29T09:47:23.973Z,12.75
2018-09-29T09:49:52.932Z,13.01
2018-09-29T09:52:22.402Z,12.88
2018-09-29T09:54:51.343Z,13.01
2018-09-29T09:57:20.314Z,12.89
2018-09-29T09:59:50.114Z,13.03
2018-09-29T10:02:24.469Z,13.05
2018-09-29T10:07:27.381Z,12.86
2018-09-29T10:09:57.574Z,12.98
2018-09-29T10:12:33.441Z,13.04
2018-09-29T10:15:02.385Z,13.02
2018-09-29T10:17:31.359Z,13.03
2018-09-29T10:22:37.182Z,13.02
2018-09-29T10:25:06.119Z,13.01
2018-09-29T10:27:35.025Z,12.97
2018-09-29T10:30:03.951Z,12.90
2018-09-29T10:32:32.999Z,13.05
2018-09-29T10:35:01.985Z,13.22
2018-09-29T10:37:30.951Z,13.26
2018-09-29T10:39:59.846Z,13.49
2018-09-29T10:42:28.764Z,13.46
2018-09-29T10:44:57.697Z,13.48
2018-09-29T10:47:26.593Z,13.55
2018-09-29T10:49:55.534Z,13.56
2018-09-29T10:52:24.515Z,13.45
2018-09-29T10:54:53.400Z,13.48
2018-09-29T10:57:22.496Z,13.46
2018-09-29T10:59:51.779Z,13.51
2018-09-29T11:02:20.815Z,13.43
2018-09-29T11:04:49.777Z,13.52
2018-09-29T11:07:18.641Z,13.78
2018-09-29T11:09:47.569Z,13.87
2018-09-29T11:12:16.452Z,14.18
2018-09-29T11:14:45.366Z,14.26
2018-09-29T11:17:14.289Z,14.47
2018-09-29T11:19:43.191Z,14.77
2018-09-29T11:22:12.129Z,14.67
2018-09-29T11:24:41.064Z,14.45
2018-09-29T11:27:10.021Z,14.45
2018-09-29T11:29:38.911Z,14.28
2018-09-29T11:32:07.871Z,14.47
2018-09-29T11:34:36.790Z,14.34
2018-09-29T11:37:05.829Z,14.34
2018-09-29T11:39:34.798Z,14.40
2018-09-29T11:42:03.715Z,14.30
2018-09-29T11:44:32.681Z,14.48
2018-09-29T11:47:01.594Z,14.34
2018-09-29T11:49:30.564Z,14.41
2018-09-29T11:52:00.139Z,14.34
2018-09-29T11:54:29.131Z,14.49
2018-09-29T11:56:58.078Z,14.39
2018-09-29T11:59:27.026Z,14.36
2018-09-29T12:01:55.991Z,14.29
2018-09-29T12:04:25.055Z,14.31
2018-09-29T12:06:53.944Z,14.39
2018-09-29T12:09:22.891Z,14.44
2018-09-29T12:11:51.907Z,14.47
2018-09-29T12:14:20.932Z,14.42
2018-09-29T12:16:49.998Z,14.38
2018-09-29T12:19:18.925Z,14.49
2018-09-29T12:21:47.877Z,14.52
2018-09-29T12:24:16.818Z,14.42
2018-09-29T12:26:45.746Z,14.41
2018-09-29T12:29:14.648Z,14.47
2018-09-29T12:31:43.575Z,14.53
2018-09-29T12:34:12.633Z,14.59
2018-09-29T12:36:41.596Z,14.65
2018-09-29T12:39:11.206Z,14.81
2018-09-29T12:41:40.117Z,14.77
2018-09-29T12:44:08.981Z,14.78
2018-09-29T12:46:37.899Z,14.95
2018-09-29T12:49:06.801Z,15.05
2018-09-29T12:51:35.688Z,15.18
2018-09-29T12:54:04.552Z,15.35
2018-09-29T12:56:33.441Z,15.35
2018-09-29T12:59:02.454Z,15.40
2018-09-29T13:01:31.288Z,15.36
2018-09-29T13:04:00.175Z,15.43
2018-09-29T13:06:29.077Z,15.47
2018-09-29T13:08:57.948Z,15.44
2018-09-29T13:11:26.883Z,15.28
2018-09-29T13:13:55.798Z,15.24
2018-09-29T13:16:24.703Z,15.34
2018-09-29T13:18:53.650Z,15.15
2018-09-29T13:21:22.570Z,15.11
2018-09-29T13:23:51.645Z,15.07
2018-09-29T13:26:20.672Z,14.99
2018-09-29T13:28:49.619Z,15.01
2018-09-29T13:31:18.524Z,15.11
2018-09-29T13:33:47.475Z,15.21
2018-09-29T13:36:17.366Z,15.26
2018-09-29T13:38:47.861Z,15.27
2018-09-29T13:41:16.782Z,15.31
2018-09-29T13:43:46.022Z,15.25
2018-09-29T13:46:14.907Z,15.25
2018-09-29T13:48:43.821Z,15.25
2018-09-29T13:51:12.718Z,15.18
2018-09-29T13:53:41.693Z,15.22
2018-09-29T13:56:10.514Z,15.28
2018-09-29T13:58:39.391Z,15.32
2018-09-29T14:01:08.267Z,15.37
2018-09-29T14:03:37.217Z,15.31
2018-09-29T14:06:06.162Z,15.30
2018-09-29T14:08:35.076Z,15.32
2018-09-29T14:11:04.004Z,15.29
2018-09-29T14:13:32.904Z,15.28
2018-09-29T14:16:01.782Z,15.23
2018-09-29T14:18:30.774Z,15.37
2018-09-29T14:20:59.647Z,15.32
2018-09-29T14:23:28.572Z,15.45
2018-09-29T14:25:57.483Z,15.48
2018-09-29T14:28:26.386Z,15.31
2018-09-29T14:30:55.286Z,15.45
2018-09-29T14:33:24.195Z,15.42
2018-09-29T14:35:53.070Z,15.42
2018-09-29T14:38:22.024Z,15.51
2018-09-29T14:40:50.951Z,15.50
2018-09-29T14:43:19.871Z,15.52
2018-09-29T14:45:48.873Z,15.44
2018-09-29T14:48:17.751Z,15.54
2018-09-29T14:50:46.636Z,15.57
2018-09-29T14:53:15.541Z,15.59
2018-09-29T14:55:44.421Z,15.59
2018-09-29T14:58:13.316Z,15.58
2018-09-29T15:00:42.261Z,15.56
2018-09-29T15:03:11.154Z,15.51
2018-09-29T15:05:40.097Z,15.59
2018-09-29T15:08:09.037Z,15.61
2018-09-29T15:10:37.974Z,15.67
2018-09-29T15:13:06.909Z,15.74
2018-09-29T15:15:35.808Z,15.60
2018-09-29T15:18:04.726Z,15.70
2018-09-29T15:20:33.728Z,15.69
2018-09-29T15:23:02.621Z,15.75
2018-09-29T15:25:31.537Z,15.73
2018-09-29T15:28:00.459Z,15.84
2018-09-29T15:30:29.331Z,15.72
2018-09-29T15:32:58.232Z,15.66
2018-09-29T15:35:27.100Z,15.76
2018-09-29T15:37:56.032Z,15.86
2018-09-29T15:40:24.934Z,15.84
2018-09-29T15:42:53.982Z,15.77
2018-09-29T15:45:22.767Z,15.67
2018-09-29T15:47:51.690Z,15.70
2018-09-29T15:50:20.605Z,15.75
2018-09-29T15:52:49.500Z,15.73
2018-09-29T15:55:18.494Z,15.77
2018-09-29T15:57:47.387Z,15.80
2018-09-29T16:00:16.330Z,15.86
2018-09-29T16:02:45.292Z,15.79
2018-09-29T16:05:14.208Z,15.83
2018-09-29T16:07:43.119Z,15.76
2018-09-29T16:10:12.004Z,15.84
2018-09-29T16:12:40.983Z,15.77
2018-09-29T16:15:10.027Z,15.63
2018-09-29T16:17:38.911Z,15.70
2018-09-29T16:20:07.817Z,15.58
2018-09-29T16:22:36.775Z,15.56
2018-09-29T16:25:05.725Z,15.52
2018-09-29T16:27:34.599Z,15.40
2018-09-29T16:30:03.529Z,15.36
2018-09-29T16:32:32.573Z,15.25
2018-09-29T16:35:01.482Z,15.21
2018-09-29T16:37:30.388Z,15.10
2018-09-29T16:39:59.259Z,14.94
2018-09-29T16:42:28.216Z,14.98
2018-09-29T16:44:57.108Z,14.86
2018-09-29T16:47:26.034Z,14.84
2018-09-29T16:49:55.117Z,14.73
2018-09-29T16:52:24.085Z,14.68
2018-09-29T16:54:53.001Z,14.61
2018-09-29T16:57:22.001Z,14.48
2018-09-29T16:59:50.883Z,14.47
2018-09-29T17:02:19.815Z,14.43
2018-09-29T17:04:48.877Z,14.31
2018-09-29T17:07:17.601Z,14.35
2018-09-29T17:09:46.473Z,14.60
2018-09-29T17:12:15.531Z,14.58
2018-09-29T17:14:44.494Z,14.56
2018-09-29T17:17:13.378Z,14.52
2018-09-29T17:19:42.267Z,14.43
2018-09-29T17:22:11.224Z,14.50
2018-09-29T17:24:40.128Z,14.03
2018-09-29T17:27:09.015Z,14.14
2018-09-29T17:29:37.935Z,14.30
2018-09-29T17:32:06.819Z,14.10
2018-09-29T17:34:35.737Z,14.15
2018-09-29T17:37:04.686Z,13.87
2018-09-29T17:39:33.592Z,13.76
2018-09-29T17:42:02.512Z,13.87
2018-09-29T17:44:31.454Z,13.70
2018-09-29T17:47:00.362Z,13.67
2018-09-29T17:49:29.284Z,13.87
2018-09-29T17:51:58.218Z,14.01
2018-09-29T17:54:27.112Z,13.68
2018-09-29T17:56:56.017Z,13.73
2018-09-29T17:59:24.953Z,13.79
2018-09-29T18:01:53.940Z,13.74
2018-09-29T18:04:22.862Z,13.87
2018-09-29T18:06:51.736Z,13.69
2018-09-29T18:09:20.642Z,13.35
2018-09-29T18:11:49.556Z,13.35
2018-09-29T18:14:18.485Z,13.43
2018-09-29T18:16:47.389Z,13.26
2018-09-29T18:19:16.281Z,13.55
2018-09-29T18:21:45.282Z,13.20
2018-09-29T18:24:14.222Z,13.11
2018-09-29T18:26:43.138Z,13.16
2018-09-29T18:29:12.045Z,13.18
2018-09-29T18:31:40.967Z,13.14
2018-09-29T18:34:10.177Z,12.98
2018-09-29T18:36:39.116Z,13.11
2018-09-29T18:39:09.490Z,12.80
2018-09-29T18:41:38.772Z,12.75
2018-09-29T18:44:07.880Z,12.72
2018-09-29T18:46:36.951Z,12.62
2018-09-29T18:49:05.855Z,12.58
2018-09-29T18:51:34.787Z,12.40
2018-09-29T18:54:03.682Z,12.41
2018-09-29T18:56:32.642Z,12.63
2018-09-29T18:59:01.569Z,12.29
2018-09-29T19:01:30.468Z,12.57
2018-09-29T19:03:59.421Z,12.32
2018-09-29T19:06:28.365Z,12.27
2018-09-29T19:08:57.251Z,12.33
2018-09-29T19:11:26.134Z,12.49
2018-09-29T19:13:55.065Z,12.62
2018-09-29T19:16:24.078Z,12.16
2018-09-29T19:18:52.953Z,12.31
2018-09-29T19:21:21.870Z,12.41
2018-09-29T19:23:50.766Z,12.54
2018-09-29T19:26:19.705Z,12.13
2018-09-29T19:28:48.632Z,12.31
2018-09-29T19:31:17.555Z,12.31
2018-09-29T19:33:46.480Z,12.06
2018-09-29T19:36:15.484Z,12.31
2018-09-29T19:38:44.406Z,12.18
2018-09-29T19:41:13.293Z,12.18
2018-09-29T19:43:42.198Z,11.93
2018-09-29T19:46:11.122Z,11.82
2018-09-29T19:48:40.031Z,11.78
2018-09-29T19:51:09.160Z,11.95
2018-09-29T19:53:38.042Z,12.12
2018-09-29T19:56:06.983Z,12.26
2018-09-29T19:58:35.917Z,11.70
2018-09-29T20:01:04.806Z,11.69
2018-09-29T20:03:33.731Z,11.72
2018-09-29T20:06:02.660Z,11.85
2018-09-29T20:08:31.595Z,11.64
2018-09-29T20:11:00.505Z,11.85
2018-09-29T20:13:29.429Z,11.64
2018-09-29T20:15:58.447Z,11.95
2018-09-29T20:18:27.748Z,11.56
2018-09-29T20:20:56.752Z,11.61
2018-09-29T20:23:25.672Z,11.80
2018-09-29T20:25:54.606Z,11.80
2018-09-29T20:28:23.627Z,11.73
2018-09-29T20:30:52.564Z,11.72
2018-09-29T20:33:21.469Z,11.60
2018-09-29T20:35:50.387Z,11.45
2018-09-29T20:38:19.328Z,11.36
2018-09-29T20:40:48.181Z,11.50
2018-09-29T20:43:17.074Z,11.25
2018-09-29T20:45:45.992Z,11.27
2018-09-29T20:48:14.933Z,11.10
2018-09-29T20:50:43.830Z,10.85
2018-09-29T20:53:12.713Z,10.87
2018-09-29T20:55:41.610Z,10.82
2018-09-29T20:58:10.528Z,11.03
2018-09-29T21:00:39.419Z,11.25
2018-09-29T21:03:08.291Z,11.31
2018-09-29T21:05:37.190Z,11.37
2018-09-29T21:08:06.349Z,11.19
2018-09-29T21:10:35.368Z,10.77
2018-09-29T21:13:04.379Z,10.85
2018-09-29T21:15:34.504Z,10.82
2018-09-29T21:18:03.429Z,10.85
2018-09-29T21:20:32.327Z,10.77
2018-09-29T21:23:01.239Z,10.95
2018-09-29T21:25:30.148Z,10.77
2018-09-29T21:27:59.091Z,10.51
2018-09-29T21:30:28.032Z,10.89
2018-09-29T21:32:57.026Z,10.82
2018-09-29T21:35:25.986Z,10.63
2018-09-29T21:37:54.985Z,10.71
2018-09-29T21:40:24.073Z,10.64
2018-09-29T21:42:53.014Z,10.60
2018-09-29T21:45:21.936Z,10.48
2018-09-29T21:47:50.884Z,10.56
2018-09-29T21:50:19.805Z,10.43
2018-09-29T21:52:48.749Z,10.56
2018-09-29T21:55:17.669Z,10.50
2018-09-29T21:57:46.638Z,10.71
2018-09-29T22:00:19.924Z,10.71
2018-09-29T22:02:48.955Z,10.40
2018-09-29T22:05:17.841Z,10.25
2018-09-29T22:07:46.956Z,10.36
2018-09-29T22:10:15.857Z,9.97
2018-09-29T22:12:44.857Z,10.02
2018-09-29T22:15:14.059Z,9.80
2018-09-29T22:17:43.115Z,9.83
2018-09-29T22:20:12.712Z,10.02
2018-09-29T22:22:41.676Z,10.03
2018-09-29T22:25:10.625Z,10.01
2018-09-29T22:27:42.375Z,9.65
2018-09-29T22:30:13.569Z,9.84
2018-09-29T22:32:43.054Z,9.48
2018-09-29T22:35:11.999Z,9.57
2018-09-29T22:37:40.932Z,9.87
2018-09-29T22:40:09.907Z,10.11
2018-09-29T22:42:38.891Z,10.11
2018-09-29T22:45:07.819Z,10.09
2018-09-29T22:47:36.757Z,9.83
2018-09-29T22:50:05.667Z,9.76
2018-09-29T22:52:34.627Z,9.97
2018-09-29T22:55:03.521Z,9.76
2018-09-29T22:57:32.569Z,9.83
2018-09-29T23:00:01.467Z,9.74
2018-09-29T23:02:30.426Z,9.98
2018-09-29T23:04:59.344Z,9.76
2018-09-29T23:07:28.322Z,9.63
2018-09-29T23:09:57.299Z,9.47
2018-09-29T23:12:26.444Z,9.25
2018-09-29T23:14:55.396Z,9.57
2018-09-29T23:17:24.282Z,9.58
2018-09-29T23:19:53.236Z,9.66
2018-09-29T23:22:22.151Z,9.50
2018-09-29T23:24:51.064Z,9.21
2018-09-29T23:27:19.982Z,9.10
2018-09-29T23:29:48.873Z,8.99
2018-09-29T23:32:17.750Z,8.98
2018-09-29T23:34:46.723Z,8.98
2018-09-29T23:37:15.906Z,9.27
2018-09-29T23:39:44.830Z,9.35
2018-09-29T23:42:13.731Z,9.33
2018-09-29T23:44:42.631Z,9.14
2018-09-29T23:47:11.514Z,9.04
2018-09-29T23:49:40.413Z,8.97
2018-09-29T23:52:09.323Z,9.03
2018-09-29T23:54:38.433Z,9.09
2018-09-29T23:57:07.310Z,9.14
2018-09-29T23:59:36.203Z,9.12
